Time;durP1;ratioP1;P1;durP2;ratioP2;P2;SDS_P1;SDS_P2;PMS_P1;PMS_P2;Temp;Humidity;BMP_temperature;BMP_pressure;BME280_temperature;BME280_humidity;BME280_pressure;Samples;Min_cycle;Max_cycle;Signal;HPM_P1;HPM_P2
2022/11/24 00:01:33;;;;;;;20.25;3.15;;;16.90;71.40;;;;;;10428338;28;20693;-29
2022/11/24 00:06:36;;;;;;;21.08;3.00;;;14.50;86.40;;;;;;10421159;28;20556;-31
2022/11/24 00:11:38;;;;;;;12.30;1.95;;;14.90;89.30;;;;;;10447760;28;20406;-30
2022/11/24 00:16:40;;;;;;;4.33;1.43;;;15.20;88.10;;;;;;10435444;28;20430;-30
2022/11/24 00:21:43;;;;;;;10.67;2.00;;;16.30;81.60;;;;;;10440152;28;20526;-35
2022/11/24 00:26:46;;;;;;;9.27;2.22;;;15.90;84.30;;;;;;10438835;28;20503;-32
2022/11/24 00:31:48;;;;;;;10.40;2.22;;;15.40;89.70;;;;;;10425674;28;20705;-31
2022/11/24 00:36:51;;;;;;;5.15;1.70;;;15.30;86.70;;;;;;10439932;28;20094;-29
2022/11/24 00:41:53;;;;;;;15.50;3.42;;;16.70;78.70;;;;;;10429660;28;20056;-34
2022/11/24 00:46:55;;;;;;;7.30;2.08;;;16.70;75.90;;;;;;10426799;28;20082;-29
2022/11/24 00:51:59;;;;;;;9.00;2.45;;;17.60;71.00;;;;;;10436136;28;20057;-30
2022/11/24 00:57:01;;;;;;;6.68;1.40;;;16.20;76.30;;;;;;10421269;28;20428;-29
2022/11/24 01:02:02;;;;;;;6.53;1.27;;;15.80;82.90;;;;;;10421949;28;20103;-29
2022/11/24 01:07:06;;;;;;;11.53;1.93;;;16.40;80.70;;;;;;10437749;28;20060;-29
2022/11/24 01:12:08;;;;;;;11.00;2.08;;;14.80;87.60;;;;;;10426111;28;20488;-31
2022/11/24 01:17:10;;;;;;;13.75;2.10;;;14.20;92.20;;;;;;10429000;28;20486;-30
2022/11/24 01:22:13;;;;;;;11.47;1.67;;;14.20;89.10;;;;;;10423479;28;20064;-30
2022/11/24 01:27:15;;;;;;;8.70;1.60;;;14.50;89.70;;;;;;10434380;28;20534;-31
2022/11/24 01:32:17;;;;;;;5.40;1.67;;;12.30;98.30;;;;;;10441640;28;20720;-30
2022/11/24 01:37:21;;;;;;;10.67;2.20;;;13.10;94.90;;;;;;10424083;28;20155;-30
2022/11/24 01:42:23;;;;;;;8.45;1.70;;;12.00;97.00;;;;;;10433672;28;20488;-29
2022/11/24 01:47:33;;;;;;;16.83;2.73;;;14.20;93.30;;;;;;10425453;28;20041;-34
2022/11/24 01:52:41;;;;;;;14.52;2.13;;;13.40;90.50;;;;;;10423280;28;20411;-27
2022/11/24 01:57:48;;;;;;;7.72;1.95;;;14.00;93.60;;;;;;10429077;28;20049;-28
2022/11/24 02:02:50;;;;;;;6.05;1.60;;;14.90;89.70;;;;;;10435677;28;20249;-29
2022/11/24 02:07:58;;;;;;;11.70;1.40;;;14.60;90.60;;;;;;10418779;28;20102;-29
2022/11/24 02:13:00;;;;;;;5.75;1.23;;;13.40;93.90;;;;;;10430954;28;20060;-29
2022/11/24 02:18:03;;;;;;;4.33;1.20;;;14.10;90.80;;;;;;10431477;28;20065;-30
2022/11/24 02:23:17;;;;;;;5.50;1.05;;;15.10;87.60;;;;;;10442663;28;20483;-29
2022/11/24 02:28:23;;;;;;;4.80;1.30;;;13.10;91.20;;;;;;10418995;28;20049;-28
2022/11/24 02:33:26;;;;;;;6.50;1.30;;;13.30;91.70;;;;;;10439907;28;20517;-31
2022/11/24 02:38:29;;;;;;;;;;;13.50;92.90;;;;;;10435885;28;20053;-36
2022/11/24 02:43:36;;;;;;;10.85;1.10;;;13.10;92.90;;;;;;10426137;28;19924;-34
2022/11/24 02:48:39;;;;;;;2.17;0.63;;;12.10;91.70;;;;;;10422178;28;20136;-30
2022/11/24 02:53:41;;;;;;;3.67;1.02;;;14.20;91.90;;;;;;10436772;28;20052;-31
2022/11/24 02:58:45;;;;;;;4.50;0.83;;;13.40;94.00;;;;;;10429808;28;20057;-34
2022/11/24 03:03:47;;;;;;;6.07;1.35;;;12.90;94.30;;;;;;10438510;28;20524;-29
2022/11/24 03:08:49;;;;;;;5.73;0.93;;;13.10;87.40;;;;;;10435585;28;20383;-29
2022/11/24 03:13:52;;;;;;;9.27;1.17;;;14.00;90.90;;;;;;10432882;28;20497;-28
2022/11/24 03:18:54;;;;;;;13.85;1.73;;;12.20;93.00;;;;;;10438907;28;20053;-29
2022/11/24 03:23:56;;;;;;;10.53;1.43;;;12.20;94.70;;;;;;10440142;28;20049;-29
2022/11/24 03:29:00;;;;;;;6.75;1.55;;;11.50;99.20;;;;;;10428618;28;20049;-33
2022/11/24 03:34:02;;;;;;;9.18;1.70;;;11.30;98.30;;;;;;10443966;28;20046;-32
2022/11/24 03:39:04;;;;;;;10.80;1.50;;;12.70;95.10;;;;;;10435251;28;20053;-29
2022/11/24 03:44:07;;;;;;;6.73;1.10;;;12.10;97.30;;;;;;10433681;28;20053;-31
2022/11/24 03:49:09;;;;;;;6.80;0.98;;;11.50;98.90;;;;;;10429477;28;20045;-30
2022/11/24 03:54:11;;;;;;;13.97;1.57;;;12.20;97.10;;;;;;10437362;28;20053;-29
2022/11/24 03:59:15;;;;;;;5.27;0.90;;;11.30;99.00;;;;;;10436141;28;20501;-28
2022/11/24 04:04:17;;;;;;;2.10;0.45;;;11.20;99.90;;;;;;10446723;28;20058;-31
2022/11/24 04:09:18;;;;;;;4.30;0.80;;;11.10;98.60;;;;;;10435970;28;20053;-31
2022/11/24 04:14:22;;;;;;;3.38;1.05;;;11.60;99.90;;;;;;10425265;28;20494;-35
2022/11/24 04:19:24;;;;;;;4.57;0.80;;;12.30;98.80;;;;;;10435359;28;20064;-30
2022/11/24 04:24:25;;;;;;;3.13;0.75;;;13.50;94.20;;;;;;10437255;28;20053;-28
2022/11/24 04:29:29;;;;;;;7.88;0.65;;;15.20;86.00;;;;;;10422916;28;20420;-29
2022/11/24 04:34:30;;;;;;;1.70;0.40;;;12.50;86.00;;;;;;10444356;28;20126;-31
2022/11/24 04:39:33;;;;;;;3.00;0.50;;;13.50;93.40;;;;;;10429517;28;20496;-29
2022/11/24 04:44:36;;;;;;;2.10;0.50;;;15.00;86.40;;;;;;10432404;28;20041;-31
2022/11/24 04:49:38;;;;;;;1.05;0.50;;;16.00;76.50;;;;;;10434215;28;20388;-30
2022/11/24 04:54:39;;;;;;;2.93;0.63;;;15.80;79.90;;;;;;10440248;28;20045;-30
2022/11/24 04:59:43;;;;;;;3.47;0.90;;;14.30;90.90;;;;;;10435758;28;20052;-30
2022/11/24 05:04:45;;;;;;;1.75;0.50;;;15.60;81.30;;;;;;10441531;28;20064;-28
2022/11/24 05:15:10;;;;;;;1.40;0.45;;;15.40;81.60;;;;;;10441798;28;20061;-31
2022/11/24 05:20:12;;;;;;;7.70;0.68;;;14.70;81.70;;;;;;10446648;28;20076;-34
2022/11/24 05:25:14;;;;;;;3.90;0.60;;;15.90;78.90;;;;;;10436286;28;20135;-30
2022/11/24 05:30:17;;;;;;;2.33;0.77;;;15.40;80.80;;;;;;10439614;28;20048;-36
2022/11/24 05:35:19;;;;;;;1.30;0.50;;;16.30;76.10;;;;;;10439724;28;20539;-30
2022/11/24 05:40:21;;;;;;;1.63;0.40;;;15.70;80.50;;;;;;10435685;28;20053;-33
2022/11/24 05:45:24;;;;;;;3.17;0.73;;;16.30;77.20;;;;;;10439576;28;20088;-31
2022/11/24 05:50:26;;;;;;;2.65;0.70;;;15.20;84.50;;;;;;10437659;28;20060;-33
2022/11/24 05:55:28;;;;;;;3.27;1.17;;;15.90;80.00;;;;;;10430884;28;20821;-31
2022/11/24 06:00:33;;;;;;;2.92;0.50;;;15.70;76.60;;;;;;10426298;28;20048;-30
2022/11/24 06:05:35;;;;;;;3.25;0.40;;;16.40;78.50;;;;;;10442659;28;20132;-28
2022/11/24 06:10:37;;;;;;;5.17;0.70;;;17.30;70.40;;;;;;10419648;28;20057;-28
2022/11/24 06:15:40;;;;;;;2.87;0.50;;;16.00;75.00;;;;;;10427679;28;20608;-31
2022/11/24 06:20:42;;;;;;;0.98;0.38;;;16.40;79.70;;;;;;10434324;28;20063;-31
2022/11/24 06:25:43;;;;;;;0.53;0.30;;;16.60;76.20;;;;;;10431366;28;20489;-31
2022/11/24 06:30:47;;;;;;;2.40;0.60;;;17.40;71.50;;;;;;10428634;28;20068;-28
2022/11/24 06:35:49;;;;;;;1.65;0.47;;;17.00;74.80;;;;;;10431824;28;20502;-29
2022/11/24 06:40:59;;;;;;;1.15;0.50;;;17.80;69.40;;;;;;10418986;28;20645;-30
2022/11/24 06:46:02;;;;;;;3.97;0.30;;;16.70;76.20;;;;;;10425733;28;20432;-30
2022/11/24 06:51:06;;;;;;;1.70;0.55;;;17.90;69.70;;;;;;10435447;28;20052;-29
2022/11/24 06:56:12;;;;;;;2.00;0.28;;;17.90;69.00;;;;;;10432515;28;20117;-32
2022/11/24 07:01:16;;;;;;;1.05;0.40;;;18.20;68.30;;;;;;10432728;28;20076;-26
2022/11/24 07:15:30;;;;;;;2.97;0.68;;;17.60;71.10;;;;;;10536487;27;20500;-29
2022/11/24 07:20:32;;;;;;;3.30;0.73;;;18.20;69.00;;;;;;10529892;28;20139;-29
2022/11/24 07:25:34;;;;;;;1.55;0.60;;;18.60;66.40;;;;;;10513498;28;20504;-29
2022/11/24 07:30:37;;;;;;;;;;;18.70;65.70;;;;;;10525554;28;20451;-33
2022/11/24 07:35:39;;;;;;;1.73;0.52;;;18.50;65.40;;;;;;10521709;28;20402;-30
2022/11/24 07:40:41;;;;;;;11.05;1.58;;;18.30;67.00;;;;;;10511371;28;20048;-31
2022/11/24 07:45:50;;;;;;;16.08;2.03;;;17.30;61.20;;;;;;10509955;28;20068;-30
2022/11/24 07:50:52;;;;;;;18.33;2.03;;;13.00;91.20;;;;;;10510381;28;20048;-34
2022/11/24 07:55:55;;;;;;;13.90;3.20;;;12.40;95.20;;;;;;10518208;28;20127;-25
2022/11/24 08:00:58;;;;;;;14.18;2.20;;;12.10;97.20;;;;;;10526328;28;20071;-28
2022/11/24 08:06:00;;;;;;;5.10;1.20;;;12.10;95.70;;;;;;10519909;28;20055;-31
2022/11/24 08:11:07;;;;;;;10.02;2.03;;;13.50;94.00;;;;;;10516470;28;20072;-29
2022/11/24 08:16:11;;;;;;;4.13;1.92;;;12.20;97.60;;;;;;10516567;28;20151;-30
2022/11/24 08:21:14;;;;;;;5.10;1.05;;;12.90;98.30;;;;;;10515813;28;20542;-27
2022/11/24 08:26:18;;;;;;;6.75;1.30;;;15.10;92.40;;;;;;10505363;28;20060;-29
2022/11/24 08:31:21;;;;;;;2.42;0.90;;;17.40;75.90;;;;;;10499964;28;20064;-30
2022/11/24 08:36:23;;;;;;;5.22;1.45;;;17.70;72.80;;;;;;10481880;28;20036;-30
2022/11/24 08:41:26;;;;;;;7.63;1.83;;;17.60;73.80;;;;;;10489118;28;20068;-31
2022/11/24 08:46:31;;;;;;;4.82;1.17;;;16.00;86.80;;;;;;10491897;28;20501;-30
2022/11/24 08:51:33;;;;;;;3.05;1.60;;;17.60;74.80;;;;;;10490659;28;20050;-29
2022/11/24 08:56:36;;;;;;;4.82;1.05;;;18.10;70.20;;;;;;10479084;28;20133;-32
2022/11/24 09:01:40;;;;;;;4.28;1.27;;;18.50;67.10;;;;;;10500950;28;20102;-30
2022/11/24 09:06:42;;;;;;;3.15;0.70;;;18.60;66.90;;;;;;10479793;28;20477;-31
2022/11/24 09:11:44;;;;;;;4.68;0.90;;;18.70;66.00;;;;;;10475463;28;20057;-33
2022/11/24 09:16:47;;;;;;;13.82;2.08;;;18.60;66.60;;;;;;10480988;28;20115;-30
2022/11/24 09:21:49;;;;;;;3.88;1.27;;;17.60;67.70;;;;;;10488526;28;20496;-30
2022/11/24 09:26:53;;;;;;;6.25;1.50;;;17.20;72.80;;;;;;10488637;28;20047;-35
2022/11/24 09:31:56;;;;;;;9.68;1.38;;;17.00;78.10;;;;;;10496821;28;20055;-33
2022/11/24 09:36:58;;;;;;;13.55;1.90;;;15.70;83.10;;;;;;10488242;28;20068;-31
2022/11/24 09:42:12;;;;;;;6.13;1.93;;;15.50;78.40;;;;;;10496672;28;20048;-32
2022/11/24 09:47:27;;;;;;;5.85;1.30;;;15.80;80.60;;;;;;10471671;28;20041;-30
2022/11/24 09:52:39;;;;;;;12.02;1.90;;;16.00;86.20;;;;;;10489621;28;20390;-35
2022/11/24 09:57:43;;;;;;;8.73;1.33;;;17.50;72.20;;;;;;10474927;28;20076;-31
2022/11/24 10:02:49;;;;;;;10.18;2.00;;;17.60;73.20;;;;;;10484281;28;20048;-29
2022/11/24 10:08:02;;;;;;;15.50;2.38;;;17.40;72.70;;;;;;10489301;28;20068;-33
2022/11/24 10:13:16;;;;;;;6.32;2.28;;;16.30;78.60;;;;;;10468461;28;20749;-32
2022/11/24 10:18:33;;;;;;;7.20;1.75;;;18.10;70.90;;;;;;10480032;28;20103;-31
2022/11/24 10:23:54;;;;;;;5.18;1.30;;;18.10;70.30;;;;;;10480553;28;20136;-34
2022/11/24 10:28:56;;;;;;;8.80;1.83;;;18.20;69.20;;;;;;10484960;28;20109;-30
2022/11/24 10:34:12;;;;;;;7.43;1.88;;;17.60;69.30;;;;;;10477066;28;20405;-32
2022/11/24 10:39:20;;;;;;;4.28;1.00;;;17.60;69.90;;;;;;10490974;28;20054;-31
2022/11/24 10:44:22;;;;;;;7.05;1.02;;;18.10;68.40;;;;;;10481190;28;20045;-29
2022/11/24 10:49:29;;;;;;;5.47;0.98;;;18.70;65.70;;;;;;10484412;28;20070;-30
2022/11/24 10:54:31;;;;;;;4.55;1.17;;;17.80;71.60;;;;;;10490146;28;20080;-33
2022/11/24 10:59:35;;;;;;;;;;;17.80;70.90;;;;;;10500041;28;20048;-28
2022/11/24 11:04:38;;;;;;;5.55;1.23;;;17.40;70.10;;;;;;10492017;28;19947;-29
2022/11/24 11:09:40;;;;;;;15.80;2.38;;;16.90;75.50;;;;;;10482615;28;20062;-31
2022/11/24 11:14:42;;;;;;;9.17;1.30;;;15.40;79.00;;;;;;10478517;28;20092;-31
2022/11/24 11:19:48;;;;;;;6.37;1.23;;;15.30;87.60;;;;;;10480302;28;20076;-29
2022/11/24 11:25:03;;;;;;;5.15;1.40;;;16.90;78.90;;;;;;10482019;28;20064;-35
2022/11/24 11:30:21;;;;;;;9.38;2.10;;;17.00;77.40;;;;;;10502753;28;20056;-32
2022/11/24 11:35:27;;;;;;;5.45;1.27;;;16.40;81.10;;;;;;10472806;28;20485;-31
2022/11/24 11:40:31;;;;;;;7.97;1.83;;;17.40;74.00;;;;;;10476900;28;20045;-34
2022/11/24 11:45:35;;;;;;;5.45;1.23;;;16.90;75.60;;;;;;10478528;28;20059;-29
2022/11/24 11:50:43;;;;;;;11.23;2.15;;;17.60;70.10;;;;;;10465637;28;20807;-30
2022/11/24 11:55:57;;;;;;;6.88;1.48;;;17.20;71.70;;;;;;10481440;28;20052;-31
2022/11/24 12:01:13;;;;;;;7.05;1.23;;;18.20;67.70;;;;;;10484174;28;20139;-33
2022/11/24 12:06:31;;;;;;;5.35;1.42;;;18.50;65.50;;;;;;10492468;28;20083;-31
2022/11/24 12:11:42;;;;;;;5.22;1.20;;;18.40;65.30;;;;;;10489232;28;20440;-31
2022/11/24 12:16:54;;;;;;;6.18;1.15;;;18.60;65.10;;;;;;10491664;28;20076;-33
2022/11/24 12:22:07;;;;;;;6.90;1.10;;;18.20;67.30;;;;;;10489594;28;20137;-29
2022/11/24 12:27:19;;;;;;;9.52;2.03;;;18.60;65.20;;;;;;10486985;28;20666;-30
2022/11/24 12:32:28;;;;;;;;;;;17.60;68.50;;;;;;10505967;28;20036;-34
2022/11/24 12:37:45;;;;;;;10.50;2.20;;;16.40;79.20;;;;;;10500532;28;19928;-30
2022/11/24 12:42:57;;;;;;;4.53;1.63;;;15.20;87.90;;;;;;10498557;28;20135;-32
2022/11/24 12:48:16;;;;;;;13.98;2.35;;;15.60;83.80;;;;;;10483200;28;20068;-30
2022/11/24 12:53:24;;;;;;;8.07;2.22;;;15.20;88.90;;;;;;10486165;28;20044;-35
2022/11/24 12:58:35;;;;;;;6.57;1.88;;;15.70;87.60;;;;;;10486564;28;20045;-31
2022/11/24 13:03:47;;;;;;;6.88;1.45;;;17.20;76.80;;;;;;10476996;28;20076;-30
2022/11/24 13:08:51;;;;;;;11.45;1.48;;;18.20;67.00;;;;;;10492324;28;20040;-28
2022/11/24 13:13:58;;;;;;;14.48;1.30;;;18.50;70.20;;;;;;10508135;28;20052;-37
2022/11/24 13:19:02;;;;;;;7.63;1.33;;;18.40;70.60;;;;;;10471239;28;20040;-30
2022/11/24 13:24:23;;;;;;;4.20;1.67;;;18.50;68.90;;;;;;10494731;28;20041;-34
2022/11/24 13:29:35;;;;;;;3.15;1.20;;;19.10;67.40;;;;;;10492532;28;20045;-33
2022/11/24 13:35:03;;;;;;;4.75;1.50;;;19.70;64.30;;;;;;10490583;28;20044;-30
2022/11/24 13:40:42;;;;;;;8.27;1.45;;;19.80;64.00;;;;;;10489514;28;20057;-30
2022/11/24 13:45:52;;;;;;;3.35;1.20;;;19.80;63.80;;;;;;10485922;28;20469;-35
2022/11/24 13:51:21;;;;;;;8.10;1.48;;;19.90;64.30;;;;;;10491728;28;20040;-31
2022/11/24 13:56:29;;;;;;;3.28;1.10;;;19.80;63.90;;;;;;10481479;28;20045;-33
2022/11/24 14:01:32;;;;;;;6.95;1.05;;;19.80;64.10;;;;;;10478910;28;20044;-30
2022/11/24 14:06:39;;;;;;;3.25;1.13;;;20.00;63.40;;;;;;10480579;28;20050;-32
2022/11/24 14:11:42;;;;;;;5.05;1.15;;;19.90;64.40;;;;;;10476192;28;20122;-30
2022/11/24 14:16:44;;;;;;;4.72;1.17;;;19.80;64.50;;;;;;10482491;28;20048;-31
2022/11/24 14:21:46;;;;;;;3.40;0.90;;;19.90;63.80;;;;;;10481442;28;20048;-31
2022/11/24 14:26:50;;;;;;;6.30;1.08;;;20.10;63.20;;;;;;10485018;28;20071;-30
2022/11/24 14:31:53;;;;;;;4.70;1.73;;;20.20;63.10;;;;;;10479789;28;20045;-30
2022/11/24 14:36:56;;;;;;;1.77;0.80;;;20.10;63.20;;;;;;10471044;28;20036;-30
2022/11/24 14:42:03;;;;;;;5.50;1.70;;;20.10;63.40;;;;;;10486720;28;20051;-30
2022/11/24 14:47:06;;;;;;;4.40;0.95;;;20.20;63.40;;;;;;10497294;28;20044;-29
2022/11/24 14:52:13;;;;;;;14.95;3.10;;;20.30;63.10;;;;;;10479043;28;20098;-31
2022/11/24 14:57:26;;;;;;;3.67;0.93;;;20.40;63.00;;;;;;10483660;28;20102;-31
2022/11/24 15:02:40;;;;;;;4.57;1.30;;;20.30;63.10;;;;;;10476899;28;20083;-32
2022/11/24 15:07:45;;;;;;;5.70;1.13;;;20.30;63.10;;;;;;10461355;28;20045;-30
2022/11/24 15:12:53;;;;;;;1.55;0.80;;;20.20;63.30;;;;;;10487348;28;20060;-29
2022/11/24 15:17:57;;;;;;;4.93;1.30;;;20.20;63.40;;;;;;10475741;28;20052;-32
2022/11/24 15:23:22;;;;;;;2.42;0.85;;;20.20;63.30;;;;;;10485701;28;20064;-34
2022/11/24 15:28:25;;;;;;;4.07;1.00;;;20.20;63.50;;;;;;10511075;28;20108;-30
2022/11/24 15:33:28;;;;;;;3.08;0.98;;;20.20;63.70;;;;;;10490185;28;20466;-30
2022/11/24 15:38:29;;;;;;;3.53;1.30;;;20.10;63.70;;;;;;10502611;28;20126;-30
2022/11/24 15:43:35;;;;;;;5.78;0.88;;;20.20;63.50;;;;;;10502618;28;20048;-30
2022/11/24 15:48:37;;;;;;;2.28;0.82;;;20.10;63.70;;;;;;10508283;28;20386;-32
2022/11/24 15:53:42;;;;;;;3.90;1.08;;;20.20;63.60;;;;;;10492081;28;20047;-30
2022/11/24 15:58:46;;;;;;;5.30;1.35;;;20.00;63.80;;;;;;10503051;28;20094;-30
2022/11/24 16:03:47;;;;;;;10.27;1.40;;;20.00;64.20;;;;;;10489110;28;20083;-30
2022/11/24 16:08:49;;;;;;;2.03;0.80;;;19.90;64.00;;;;;;10498011;28;20045;-31
2022/11/24 16:13:53;;;;;;;7.32;1.35;;;20.00;63.80;;;;;;10498307;28;20065;-33
2022/11/24 16:18:55;;;;;;;2.75;0.80;;;20.00;64.10;;;;;;10492223;28;20648;-30
2022/11/24 16:23:57;;;;;;;5.38;0.95;;;19.90;64.70;;;;;;10507444;28;20501;-32
2022/11/24 16:29:00;;;;;;;2.45;0.80;;;20.00;64.20;;;;;;10501106;28;20072;-30
2022/11/24 16:34:03;;;;;;;4.85;1.45;;;20.00;63.90;;;;;;10500360;28;20049;-37
2022/11/24 16:39:04;;;;;;;;;;;19.90;64.50;;;;;;10471819;28;20068;-30
2022/11/24 16:44:07;;;;;;;2.55;1.08;;;20.00;64.00;;;;;;10476615;28;20354;-31
2022/11/24 16:49:09;;;;;;;7.45;1.70;;;20.00;64.00;;;;;;10491152;28;20131;-31
2022/11/24 16:54:11;;;;;;;5.05;2.05;;;19.80;64.20;;;;;;10491704;28;20090;-31
2022/11/24 16:59:15;;;;;;;7.45;2.55;;;19.90;64.50;;;;;;10498439;28;20079;-30
2022/11/24 17:04:17;;;;;;;7.22;2.38;;;19.70;64.60;;;;;;10485561;28;20106;-30
2022/11/24 17:09:19;;;;;;;;;;;19.60;65.30;;;;;;10487118;28;20047;-31
2022/11/24 17:14:22;;;;;;;3.95;1.30;;;19.90;64.20;;;;;;10484422;28;20487;-31
2022/11/24 17:19:24;;;;;;;4.75;1.30;;;19.90;64.20;;;;;;10477608;28;20106;-31
2022/11/24 17:24:26;;;;;;;2.13;1.10;;;19.80;64.80;;;;;;10491652;28;20135;-31
2022/11/24 17:29:29;;;;;;;11.98;3.28;;;19.70;65.50;;;;;;10482785;28;20045;-31
2022/11/24 17:34:31;;;;;;;9.07;2.90;;;19.20;65.90;;;;;;10488143;28;20055;-29
2022/11/24 17:39:33;;;;;;;8.20;3.40;;;19.10;65.70;;;;;;10481349;28;20129;-31
2022/11/24 17:44:36;;;;;;;7.85;2.65;;;19.40;66.60;;;;;;10486267;28;20102;-31
2022/11/24 17:49:38;;;;;;;9.57;2.40;;;19.00;67.20;;;;;;10485469;28;20052;-30
2022/11/24 17:54:40;;;;;;;8.52;2.00;;;19.00;66.20;;;;;;10494544;28;20048;-34
2022/11/24 17:59:43;;;;;;;8.02;1.60;;;19.30;67.10;;;;;;10493396;28;20055;-31
2022/11/24 18:04:45;;;;;;;6.00;1.27;;;19.60;65.30;;;;;;10482408;28;20489;-30
2022/11/24 18:09:47;;;;;;;7.30;1.70;;;19.60;65.30;;;;;;10488375;28;20596;-30
2022/11/24 18:14:51;;;;;;;5.85;1.30;;;19.70;65.40;;;;;;10484512;28;20923;-31
2022/11/24 18:19:52;;;;;;;5.90;1.98;;;19.70;65.40;;;;;;10485940;28;20045;-30
2022/11/24 18:24:54;;;;;;;6.68;2.25;;;19.40;65.70;;;;;;10489677;28;20040;-30
2022/11/24 18:29:58;;;;;;;6.40;2.35;;;19.40;66.20;;;;;;10479655;28;20048;-32
2022/11/24 18:35:00;;;;;;;11.25;2.58;;;19.20;67.00;;;;;;10484281;28;20539;-32
2022/11/24 18:40:02;;;;;;;5.75;1.95;;;19.30;66.80;;;;;;10486048;28;20048;-29
2022/11/24 18:45:06;;;;;;;10.07;2.58;;;19.20;66.30;;;;;;10470107;28;20564;-37
2022/11/24 18:50:09;;;;;;;8.45;2.33;;;19.10;63.30;;;;;;10473438;28;20053;-29
2022/11/24 18:55:11;;;;;;;8.20;2.35;;;19.20;67.30;;;;;;10487512;28;20044;-31
2022/11/24 19:00:15;;;;;;;6.47;2.45;;;19.30;67.10;;;;;;10486833;28;20053;-31
2022/11/24 19:05:18;;;;;;;9.85;2.53;;;19.20;66.70;;;;;;10490297;28;20157;-33
2022/11/24 19:10:20;;;;;;;7.00;2.28;;;18.90;68.10;;;;;;10486125;28;20120;-31
2022/11/24 19:15:23;;;;;;;9.60;2.13;;;19.20;66.70;;;;;;10487460;28;20084;-30
2022/11/24 19:20:25;;;;;;;6.88;1.60;;;19.10;67.50;;;;;;10487899;28;20102;-33
2022/11/24 19:25:27;;;;;;;6.63;1.65;;;19.40;66.90;;;;;;10490219;28;20068;-30
2022/11/24 19:30:30;;;;;;;9.73;1.63;;;19.50;66.30;;;;;;10487247;28;20471;-30
2022/11/24 19:35:32;;;;;;;6.93;1.67;;;19.50;67.40;;;;;;10478580;28;20139;-31
2022/11/24 19:40:33;;;;;;;6.95;1.55;;;19.60;66.10;;;;;;10486249;28;20040;-31
2022/11/24 19:45:42;;;;;;;3.50;1.30;;;19.70;66.10;;;;;;10470800;28;20051;-36
2022/11/24 19:50:44;;;;;;;9.38;1.45;;;19.60;66.70;;;;;;10473652;28;20082;-37
2022/11/24 19:55:46;;;;;;;11.07;2.10;;;19.70;66.40;;;;;;10474574;28;20045;-31
2022/11/24 20:00:49;;;;;;;11.63;2.00;;;19.80;66.50;;;;;;10492272;28;20116;-30
2022/11/24 20:05:55;;;;;;;10.43;2.15;;;19.70;66.40;;;;;;10482340;28;20048;-30
2022/11/24 20:11:03;;;;;;;8.98;1.83;;;19.70;67.10;;;;;;10477405;28;20052;-36
2022/11/24 20:16:09;;;;;;;6.55;1.70;;;19.50;66.60;;;;;;10481068;28;20095;-32
2022/11/24 20:21:13;;;;;;;8.32;1.08;;;19.50;66.90;;;;;;10487384;28;20051;-34
2022/11/24 20:26:18;;;;;;;12.57;1.77;;;19.70;66.50;;;;;;10487474;28;20119;-27
2022/11/24 20:31:25;;;;;;;8.38;2.05;;;19.60;66.40;;;;;;10480022;28;20045;-30
2022/11/24 20:36:28;;;;;;;12.27;2.08;;;19.60;66.60;;;;;;10486839;28;20057;-36
2022/11/24 20:41:32;;;;;;;9.88;1.67;;;19.50;65.40;;;;;;10495638;28;20123;-30
2022/11/24 20:46:38;;;;;;;9.57;1.70;;;19.70;66.10;;;;;;10489581;28;20405;-30
2022/11/24 20:51:42;;;;;;;8.98;2.15;;;19.70;66.30;;;;;;10481416;28;20098;-32
2022/11/24 20:56:46;;;;;;;12.15;2.40;;;19.30;67.90;;;;;;10490307;28;20052;-31
2022/11/24 21:01:50;;;;;;;8.80;2.30;;;19.30;67.00;;;;;;10486065;28;20055;-30
2022/11/24 21:06:52;;;;;;;9.07;2.25;;;19.40;67.30;;;;;;10479378;28;20063;-30
2022/11/24 21:11:54;;;;;;;9.38;1.90;;;19.40;67.50;;;;;;10490188;28;20079;-32
2022/11/24 21:16:57;;;;;;;10.70;1.67;;;18.70;67.40;;;;;;10484702;28;20041;-32
2022/11/24 21:21:59;;;;;;;10.93;2.03;;;19.30;68.60;;;;;;10491637;28;20049;-28
2022/11/24 21:27:01;;;;;;;10.88;1.95;;;19.50;66.80;;;;;;10491815;28;20114;-30
2022/11/24 21:32:04;;;;;;;6.95;1.77;;;19.40;66.90;;;;;;10489203;28;20093;-30
2022/11/24 21:37:06;;;;;;;10.73;2.00;;;19.80;65.80;;;;;;10484541;28;20056;-31
2022/11/24 21:42:08;;;;;;;4.97;1.60;;;19.80;65.60;;;;;;10495765;28;20046;-31
2022/11/24 21:47:11;;;;;;;6.78;1.35;;;19.50;66.10;;;;;;10490971;28;20049;-32
2022/11/24 21:52:13;;;;;;;7.95;1.73;;;19.40;67.50;;;;;;10488637;28;20106;-35
2022/11/24 21:57:15;;;;;;;9.93;2.10;;;19.50;67.10;;;;;;10484661;28;20159;-31
2022/11/24 22:02:18;;;;;;;5.95;1.73;;;19.30;67.50;;;;;;10484776;28;20044;-30
2022/11/24 22:07:20;;;;;;;8.88;2.08;;;19.40;67.60;;;;;;10488900;28;20428;-29
2022/11/24 22:12:22;;;;;;;8.40;2.08;;;19.50;65.70;;;;;;10484867;28;20063;-31
2022/11/24 22:17:25;;;;;;;7.78;1.90;;;19.50;66.40;;;;;;10487032;28;20045;-32
2022/11/24 22:22:27;;;;;;;4.07;1.70;;;19.50;66.20;;;;;;10491425;28;20055;-30
2022/11/24 22:27:28;;;;;;;5.22;1.65;;;19.60;65.90;;;;;;10484598;28;20079;-37
2022/11/24 22:32:32;;;;;;;5.70;1.83;;;19.70;65.30;;;;;;10482687;28;20084;-30
2022/11/24 22:37:33;;;;;;;4.00;1.38;;;19.00;66.60;;;;;;10480474;28;20110;-30
2022/11/24 22:42:36;;;;;;;8.57;2.38;;;19.50;66.20;;;;;;10488934;28;20047;-27
2022/11/24 22:47:39;;;;;;;9.30;1.30;;;19.50;65.60;;;;;;10465000;28;20040;-35
2022/11/24 22:52:41;;;;;;;7.13;1.35;;;19.50;65.80;;;;;;10482640;28;20462;-30
2022/11/24 22:57:43;;;;;;;6.72;1.58;;;19.70;65.20;;;;;;10467062;28;20652;-30
2022/11/24 23:02:46;;;;;;;;;;;19.70;65.20;;;;;;10473885;28;20072;-30
2022/11/24 23:07:48;;;;;;;7.07;1.52;;;19.70;64.80;;;;;;10465796;28;19940;-30
2022/11/24 23:12:50;;;;;;;7.63;1.73;;;19.60;65.30;;;;;;10465037;28;20141;-30
2022/11/24 23:17:53;;;;;;;7.45;1.10;;;19.50;65.80;;;;;;10482804;28;20485;-31
2022/11/24 23:22:55;;;;;;;7.70;1.85;;;19.40;65.90;;;;;;10481080;28;20533;-32
2022/11/24 23:27:57;;;;;;;;;;;19.50;65.40;;;;;;10482123;28;20045;-32
2022/11/24 23:33:01;;;;;;;7.00;1.25;;;19.50;65.80;;;;;;10488025;28;19951;-29
2022/11/24 23:38:03;;;;;;;7.30;1.65;;;19.50;65.70;;;;;;10477828;28;20143;-31
2022/11/24 23:43:05;;;;;;;5.40;1.75;;;19.40;66.00;;;;;;10491824;28;20044;-31
2022/11/24 23:48:08;;;;;;;8.25;1.42;;;19.50;65.30;;;;;;10483160;28;20044;-30
2022/11/24 23:53:10;;;;;;;4.05;1.48;;;19.50;65.40;;;;;;10482985;28;20131;-33
2022/11/24 23:58:12;;;;;;;7.35;1.27;;;19.40;65.90;;;;;;10501955;28;20052;-32
